Time;durP1;ratioP1;P1;durP2;ratioP2;P2;SDS_P1;SDS_P2;PMS_P1;PMS_P2;Temp;Humidity;BMP_temperature;BMP_pressure;BME280_temperature;BME280_humidity;BME280_pressure;Samples;Min_cycle;Max_cycle;Signal;HPM_P1;HPM_P2
2023/10/15 00:00:50;;;;;;;0.60;0.60;;;10.50;62.90;;;;;;5132305;27;20020;-69
2023/10/15 00:03:16;;;;;;;0.60;0.60;;;10.50;63.10;;;;;;5145115;27;20030;-69
2023/10/15 00:05:41;;;;;;;0.50;0.50;;;10.50;63.00;;;;;;5153104;27;20030;-68
2023/10/15 00:08:07;;;;;;;0.63;0.63;;;10.50;63.10;;;;;;5146353;27;20465;-68
2023/10/15 00:10:34;;;;;;;0.50;0.50;;;10.40;63.10;;;;;;5132386;28;20039;-69
2023/10/15 00:13:00;;;;;;;0.40;0.40;;;10.40;63.10;;;;;;5142878;27;20034;-68
2023/10/15 00:15:28;;;;;;;0.40;0.40;;;10.40;63.10;;;;;;5152716;27;20365;-68
2023/10/15 00:17:58;;;;;;;0.40;0.40;;;10.30;62.90;;;;;;5148224;27;20015;-69
2023/10/15 00:20:28;;;;;;;0.50;0.50;;;10.30;62.90;;;;;;5132205;27;20019;-69
2023/10/15 00:22:53;;;;;;;0.50;0.50;;;10.20;62.90;;;;;;5141818;27;20113;-68
2023/10/15 00:25:19;;;;;;;0.68;0.68;;;10.20;62.90;;;;;;5142581;27;20421;-68
2023/10/15 00:27:52;;;;;;;0.50;0.50;;;10.20;63.10;;;;;;5132291;27;20372;-68
2023/10/15 00:30:19;;;;;;;0.50;0.50;;;10.20;63.30;;;;;;5132749;28;20027;-69
2023/10/15 00:32:46;;;;;;;0.50;0.50;;;10.20;63.10;;;;;;5141568;27;20026;-69
2023/10/15 00:35:13;;;;;;;0.68;0.68;;;10.20;63.10;;;;;;5153434;27;20033;-69
2023/10/15 00:37:51;;;;;;;0.70;0.70;;;10.20;63.10;;;;;;5149542;27;20035;-69
2023/10/15 00:40:20;;;;;;;0.60;0.60;;;10.10;63.00;;;;;;5154325;27;20034;-69
2023/10/15 00:42:45;;;;;;;0.50;0.50;;;10.10;63.40;;;;;;5148284;27;20020;-69
2023/10/15 00:45:14;;;;;;;0.50;0.50;;;10.20;63.70;;;;;;5143537;27;20570;-69
2023/10/15 00:47:41;;;;;;;0.40;0.40;;;10.20;64.10;;;;;;5132206;28;20043;-69
2023/10/15 00:50:09;;;;;;;0.50;0.50;;;10.20;64.30;;;;;;5135173;27;20430;-69
2023/10/15 00:52:42;;;;;;;0.50;0.50;;;10.40;64.50;;;;;;5144596;27;20735;-69
2023/10/15 00:55:13;;;;;;;0.50;0.50;;;10.40;64.50;;;;;;5144126;27;20503;-69
2023/10/15 00:57:41;;;;;;;0.75;0.75;;;10.50;64.40;;;;;;5157414;27;20031;-68
2023/10/15 01:00:36;;;;;;;0.50;0.50;;;10.60;64.30;;;;;;5157218;27;20137;-68
2023/10/15 01:03:01;;;;;;;0.50;0.50;;;10.60;64.20;;;;;;5152524;27;20072;-69
2023/10/15 01:05:27;;;;;;;1.35;1.30;;;10.80;64.10;;;;;;5147486;27;20468;-69
2023/10/15 01:07:54;;;;;;;0.55;0.55;;;10.80;64.10;;;;;;5137091;27;20031;-69
2023/10/15 01:10:40;;;;;;;1.85;0.95;;;10.90;64.20;;;;;;5135844;27;20026;-69
2023/10/15 01:13:17;;;;;;;0.65;0.65;;;11.00;64.20;;;;;;5149424;27;20031;-69
2023/10/15 01:15:46;;;;;;;0.40;0.40;;;11.10;64.20;;;;;;5145089;27;20028;-69
2023/10/15 01:18:12;;;;;;;0.40;0.40;;;11.20;64.20;;;;;;5136560;27;20035;-69
2023/10/15 01:20:42;;;;;;;0.40;0.40;;;11.30;64.20;;;;;;5136477;27;20437;-69
2023/10/15 01:23:09;;;;;;;16.88;1.05;;;11.40;64.10;;;;;;5149772;27;20025;-69
2023/10/15 01:25:37;;;;;;;0.85;0.85;;;11.50;64.00;;;;;;5156867;27;20023;-69
2023/10/15 01:28:06;;;;;;;0.50;0.50;;;11.50;63.80;;;;;;5157445;27;20109;-69
2023/10/15 01:30:36;;;;;;;0.73;0.73;;;11.70;63.70;;;;;;5145125;27;20041;-69
2023/10/15 01:33:06;;;;;;;0.60;0.60;;;11.70;63.60;;;;;;5148427;27;20054;-69
2023/10/15 01:35:32;;;;;;;0.93;0.93;;;11.80;63.50;;;;;;5145575;27;20028;-69
2023/10/15 01:38:09;;;;;;;0.47;0.47;;;11.80;63.40;;;;;;5136570;27;20065;-69
2023/10/15 01:40:40;;;;;;;0.45;0.45;;;11.80;63.20;;;;;;5146312;27;20031;-69
2023/10/15 01:43:12;;;;;;;0.50;0.50;;;11.80;62.90;;;;;;5152789;27;20026;-69
2023/10/15 01:45:47;;;;;;;0.60;0.60;;;11.80;62.90;;;;;;5155439;27;20033;-69
2023/10/15 01:48:25;;;;;;;0.50;0.50;;;11.90;62.90;;;;;;5156622;27;20023;-69
2023/10/15 01:50:51;;;;;;;0.40;0.40;;;11.90;62.70;;;;;;5142124;27;20031;-69
2023/10/15 01:53:21;;;;;;;0.40;0.40;;;12.00;62.60;;;;;;5149692;27;20025;-69
2023/10/15 01:55:59;;;;;;;0.68;0.68;;;12.00;62.40;;;;;;5154604;27;20029;-69
2023/10/15 01:58:31;;;;;;;0.70;0.70;;;12.10;62.40;;;;;;5156350;27;20114;-69
2023/10/15 02:01:04;;;;;;;0.50;0.50;;;12.10;62.40;;;;;;5140749;27;20023;-69
2023/10/15 02:03:31;;;;;;;0.50;0.50;;;12.20;62.50;;;;;;5151236;27;20083;-69
2023/10/15 02:06:04;;;;;;;0.38;0.38;;;12.20;62.50;;;;;;5153732;27;20026;-68
2023/10/15 02:08:30;;;;;;;0.40;0.40;;;12.10;62.50;;;;;;5155943;27;20061;-68
2023/10/15 02:10:56;;;;;;;0.50;0.50;;;12.20;62.60;;;;;;5141660;27;20047;-68
2023/10/15 02:13:21;;;;;;;0.70;0.70;;;12.20;62.50;;;;;;5149736;27;20117;-69
2023/10/15 02:15:55;;;;;;;0.40;0.40;;;12.20;62.60;;;;;;5153195;27;20399;-68
2023/10/15 02:18:21;;;;;;;0.50;0.50;;;12.20;62.60;;;;;;5155797;27;20058;-69
2023/10/15 02:23:19;;;;;;;0.68;0.68;;;12.20;62.30;;;;;;5149166;27;20487;-69
2023/10/15 02:26:00;;;;;;;0.40;0.40;;;12.20;62.30;;;;;;5152864;27;20047;-70
2023/10/15 02:28:31;;;;;;;0.40;0.40;;;12.20;62.20;;;;;;5155702;27;20027;-69
2023/10/15 02:33:32;;;;;;;0.45;0.45;;;12.20;62.10;;;;;;5151600;27;20034;-70
2023/10/15 02:35:59;;;;;;;0.77;0.77;;;12.20;62.00;;;;;;5152418;27;20388;-69
2023/10/15 02:38:36;;;;;;;0.63;0.63;;;12.20;61.70;;;;;;5140944;27;20483;-69
2023/10/15 02:41:05;;;;;;;0.50;0.50;;;12.20;61.60;;;;;;5148308;27;20072;-69
2023/10/15 02:43:40;;;;;;;0.45;0.45;;;12.30;61.60;;;;;;5151142;27;20472;-69
2023/10/15 02:46:22;;;;;;;1.10;0.98;;;12.20;61.30;;;;;;5151612;27;20086;-69
2023/10/15 02:48:49;;;;;;;0.40;0.40;;;12.20;61.30;;;;;;5154824;27;20061;-69
2023/10/15 02:51:23;;;;;;;0.50;0.50;;;12.20;61.40;;;;;;5137373;27;20098;-70
2023/10/15 02:53:53;;;;;;;0.40;0.40;;;12.20;61.30;;;;;;5140445;27;20039;-69
2023/10/15 02:56:22;;;;;;;0.50;0.50;;;12.20;61.30;;;;;;5151146;27;20026;-68
2023/10/15 02:58:50;;;;;;;0.40;0.40;;;12.20;61.20;;;;;;5154539;27;20459;-69
2023/10/15 03:01:17;;;;;;;0.50;0.50;;;12.20;61.20;;;;;;5136830;27;20026;-69
2023/10/15 03:03:49;;;;;;;0.50;0.50;;;12.20;61.10;;;;;;5151396;27;20037;-69
2023/10/15 03:06:18;;;;;;;0.40;0.40;;;12.20;61.20;;;;;;5150027;27;20019;-69
2023/10/15 03:08:47;;;;;;;0.50;0.50;;;12.20;61.10;;;;;;5154125;27;20041;-69
2023/10/15 03:11:14;;;;;;;0.40;0.40;;;12.20;61.10;;;;;;5136997;27;20046;-70
2023/10/15 03:13:55;;;;;;;0.50;0.50;;;12.10;61.10;;;;;;5150692;27;20074;-69
2023/10/15 03:16:23;;;;;;;0.88;0.88;;;12.10;61.20;;;;;;5136880;27;20035;-68
2023/10/15 03:18:49;;;;;;;0.47;0.47;;;12.10;61.20;;;;;;5133039;27;20046;-69
2023/10/15 03:21:26;;;;;;;0.52;0.52;;;12.00;61.20;;;;;;5132025;27;20460;-69
2023/10/15 03:23:55;;;;;;;0.40;0.40;;;12.00;61.10;;;;;;5140334;27;20050;-68
2023/10/15 03:26:22;;;;;;;0.45;0.45;;;12.00;61.20;;;;;;5149207;27;20025;-69
2023/10/15 03:28:51;;;;;;;0.50;0.50;;;12.00;61.20;;;;;;5153465;27;20075;-69
2023/10/15 03:31:23;;;;;;;0.50;0.50;;;12.00;61.20;;;;;;5136716;27;20015;-69
2023/10/15 03:36:50;;;;;;;0.50;0.50;;;12.00;61.20;;;;;;5148842;27;20033;-69
2023/10/15 03:39:54;;;;;;;0.50;0.50;;;12.00;61.20;;;;;;5132694;27;20035;-69
2023/10/15 03:44:45;;;;;;;0.40;0.40;;;11.80;61.30;;;;;;5149107;27;20027;-69
2023/10/15 03:47:15;;;;;;;0.50;0.50;;;11.80;61.50;;;;;;5132571;27;20023;-69
2023/10/15 03:49:44;;;;;;;0.50;0.50;;;11.70;61.60;;;;;;5132331;27;20038;-69
2023/10/15 03:52:14;;;;;;;0.50;0.50;;;11.70;61.60;;;;;;5139008;27;20018;-69
2023/10/15 03:54:42;;;;;;;0.50;0.50;;;11.80;61.70;;;;;;5148502;27;20442;-69
2023/10/15 03:57:08;;;;;;;0.50;0.50;;;11.70;61.60;;;;;;5132900;27;20464;-69
2023/10/15 03:59:44;;;;;;;0.52;0.52;;;11.70;61.60;;;;;;5132267;27;20023;-69
2023/10/15 04:02:22;;;;;;;0.60;0.60;;;11.70;61.70;;;;;;5139251;27;20486;-68
2023/10/15 04:04:56;;;;;;;0.50;0.50;;;11.60;61.70;;;;;;5147265;27;20023;-69
2023/10/15 04:07:23;;;;;;;0.50;0.50;;;11.50;61.70;;;;;;5153142;27;20026;-69
2023/10/15 04:09:50;;;;;;;0.43;0.43;;;11.50;61.70;;;;;;5149009;27;20030;-68
2023/10/15 04:12:18;;;;;;;0.50;0.50;;;11.40;61.70;;;;;;5140047;27;20443;-69
2023/10/15 04:14:44;;;;;;;0.50;0.50;;;11.40;61.80;;;;;;5147582;27;20023;-69
2023/10/15 04:17:10;;;;;;;0.40;0.40;;;11.40;62.00;;;;;;5132611;27;20428;-69
2023/10/15 04:19:36;;;;;;;0.40;0.40;;;11.40;62.20;;;;;;5131868;28;20030;-69
2023/10/15 04:22:14;;;;;;;0.43;0.43;;;11.40;62.30;;;;;;5138166;27;20572;-69
2023/10/15 04:24:41;;;;;;;0.57;0.57;;;11.40;62.20;;;;;;5149397;27;20019;-69
2023/10/15 04:27:15;;;;;;;0.40;0.40;;;11.30;62.00;;;;;;5154330;27;20034;-70
2023/10/15 04:29:59;;;;;;;0.50;0.50;;;11.20;62.10;;;;;;5154277;27;20054;-69
2023/10/15 04:32:47;;;;;;;0.40;0.40;;;11.30;62.30;;;;;;5145519;27;20027;-68
2023/10/15 04:35:20;;;;;;;0.40;0.40;;;11.20;62.40;;;;;;5147540;27;20395;-68
2023/10/15 04:37:48;;;;;;;1.08;1.08;;;11.20;62.50;;;;;;5149131;27;20027;-69
2023/10/15 04:40:16;;;;;;;0.40;0.40;;;11.20;62.60;;;;;;5143334;27;20030;-68
2023/10/15 04:42:51;;;;;;;0.50;0.50;;;11.30;62.70;;;;;;5155377;27;20019;-68
2023/10/15 04:45:29;;;;;;;0.40;0.40;;;11.30;62.70;;;;;;5146495;27;20023;-68
2023/10/15 04:47:59;;;;;;;0.50;0.50;;;11.30;62.80;;;;;;5156763;27;20027;-68
2023/10/15 04:50:35;;;;;;;0.40;0.40;;;11.30;62.70;;;;;;5147859;27;20066;-69
2023/10/15 04:55:47;;;;;;;0.50;0.50;;;11.30;62.70;;;;;;5139972;27;20507;-68
2023/10/15 04:58:13;;;;;;;0.50;0.50;;;11.30;62.70;;;;;;5156780;27;20087;-69
2023/10/15 05:00:47;;;;;;;0.60;0.60;;;11.30;62.70;;;;;;5143952;27;20083;-68
2023/10/15 05:03:14;;;;;;;0.50;0.50;;;11.30;62.70;;;;;;5149120;27;20026;-68
2023/10/15 05:05:44;;;;;;;0.47;0.47;;;11.20;62.70;;;;;;5148816;27;20555;-69
2023/10/15 05:08:12;;;;;;;0.50;0.50;;;11.20;62.70;;;;;;5156815;27;20027;-68
2023/10/15 05:10:50;;;;;;;0.40;0.40;;;11.30;62.80;;;;;;5145352;27;20028;-69
2023/10/15 05:13:16;;;;;;;0.50;0.50;;;11.20;62.80;;;;;;5149372;27;20031;-70
2023/10/15 05:15:46;;;;;;;0.40;0.40;;;11.20;62.90;;;;;;5150539;27;20024;-69
2023/10/15 05:18:13;;;;;;;0.50;0.50;;;11.20;63.00;;;;;;5135743;27;20103;-69
2023/10/15 05:20:39;;;;;;;0.40;0.40;;;11.30;63.00;;;;;;5135300;27;20106;-67
2023/10/15 05:23:05;;;;;;;0.50;0.50;;;11.30;63.00;;;;;;5132449;27;20110;-68
2023/10/15 05:25:30;;;;;;;0.40;0.40;;;11.30;63.00;;;;;;5146038;27;20038;-68
2023/10/15 05:27:56;;;;;;;0.50;0.50;;;11.30;63.10;;;;;;5154614;27;20022;-68
2023/10/15 05:30:21;;;;;;;0.95;0.95;;;11.30;63.10;;;;;;5146750;27;20031;-68
2023/10/15 05:32:50;;;;;;;0.40;0.40;;;11.30;63.00;;;;;;5147459;27;20019;-68
2023/10/15 05:35:17;;;;;;;0.50;0.50;;;11.30;63.00;;;;;;5145467;27;20031;-69
2023/10/15 05:37:44;;;;;;;0.50;0.50;;;11.30;63.00;;;;;;5147851;27;20483;-69
2023/10/15 05:40:12;;;;;;;0.47;0.47;;;11.30;63.00;;;;;;5141760;27;20498;-68
2023/10/15 05:42:38;;;;;;;0.40;0.40;;;11.30;63.00;;;;;;5154152;27;20064;-68
2023/10/15 05:45:07;;;;;;;1.55;1.15;;;11.30;62.90;;;;;;5147053;27;20031;-69
2023/10/15 05:47:36;;;;;;;2.70;0.98;;;11.30;62.90;;;;;;5153352;27;20394;-68
2023/10/15 05:50:04;;;;;;;0.40;0.40;;;11.30;62.80;;;;;;5155102;27;20430;-68
2023/10/15 05:52:30;;;;;;;2.90;0.90;;;11.20;62.70;;;;;;5153894;27;20026;-69
2023/10/15 05:54:55;;;;;;;0.30;0.30;;;11.20;62.70;;;;;;5148349;27;20031;-69
2023/10/15 05:57:21;;;;;;;0.60;0.60;;;11.10;62.80;;;;;;5151610;27;20038;-69
2023/10/15 05:59:48;;;;;;;0.40;0.40;;;11.00;62.80;;;;;;5151525;27;20027;-69
2023/10/15 06:02:14;;;;;;;0.40;0.40;;;11.00;62.90;;;;;;5141757;27;20038;-70
2023/10/15 06:04:40;;;;;;;1.38;0.63;;;10.90;62.90;;;;;;5150299;27;20075;-70
2023/10/15 06:07:05;;;;;;;0.45;0.45;;;10.90;63.10;;;;;;5133205;27;20031;-69
2023/10/15 06:09:31;;;;;;;0.50;0.50;;;10.90;63.30;;;;;;5134083;27;20039;-70
2023/10/15 06:11:57;;;;;;;0.45;0.45;;;10.90;63.40;;;;;;5139050;27;20035;-69
2023/10/15 06:14:23;;;;;;;0.40;0.40;;;10.90;63.50;;;;;;5151370;27;20368;-70
2023/10/15 06:16:52;;;;;;;0.43;0.43;;;10.90;63.60;;;;;;5155208;27;20527;-71
2023/10/15 06:19:18;;;;;;;0.50;0.50;;;11.00;63.80;;;;;;5155201;27;20034;-70
2023/10/15 06:21:44;;;;;;;0.40;0.40;;;11.00;63.90;;;;;;5137355;27;20034;-70
2023/10/15 06:24:10;;;;;;;0.50;0.50;;;11.10;64.00;;;;;;5153117;27;20178;-70
2023/10/15 06:26:36;;;;;;;1.05;1.05;;;11.20;64.00;;;;;;5144383;27;20062;-70
2023/10/15 06:29:02;;;;;;;0.50;0.50;;;11.30;64.00;;;;;;5154900;27;20464;-70
2023/10/15 06:31:28;;;;;;;0.40;0.40;;;11.40;64.00;;;;;;5136643;27;20027;-70
2023/10/15 06:33:55;;;;;;;0.50;0.50;;;11.40;63.80;;;;;;5152511;27;20425;-70
2023/10/15 06:36:21;;;;;;;0.50;0.50;;;11.50;63.50;;;;;;5144232;27;20075;-69
2023/10/15 06:38:47;;;;;;;0.50;0.50;;;11.50;63.40;;;;;;5137738;27;20039;-70
2023/10/15 06:41:13;;;;;;;0.50;0.50;;;11.50;63.40;;;;;;5148734;27;20069;-70
2023/10/15 06:43:38;;;;;;;0.40;0.40;;;11.50;63.50;;;;;;5151370;27;20066;-70
2023/10/15 06:46:07;;;;;;;0.55;0.55;;;11.60;63.50;;;;;;5153637;27;20031;-70
2023/10/15 06:48:35;;;;;;;0.60;0.60;;;11.60;63.60;;;;;;5153710;27;20440;-70
2023/10/15 06:51:04;;;;;;;0.50;0.50;;;11.70;63.50;;;;;;5139765;27;20038;-69
2023/10/15 06:53:31;;;;;;;0.40;0.40;;;11.80;63.50;;;;;;5149267;27;20023;-69
2023/10/15 06:55:57;;;;;;;0.82;0.82;;;11.80;63.60;;;;;;5142538;27;20019;-70
2023/10/15 06:58:23;;;;;;;0.40;0.40;;;12.00;63.70;;;;;;5153230;27;20037;-69
2023/10/15 07:00:48;;;;;;;0.50;0.50;;;12.10;63.70;;;;;;5139843;27;20034;-69
2023/10/15 07:03:15;;;;;;;0.50;0.50;;;12.20;63.50;;;;;;5148031;27;20026;-70
2023/10/15 07:05:41;;;;;;;0.40;0.40;;;12.30;63.50;;;;;;5141274;27;20015;-70
2023/10/15 07:08:07;;;;;;;0.95;0.95;;;12.40;63.40;;;;;;5133722;27;20080;-69
2023/10/15 07:10:33;;;;;;;0.40;0.40;;;12.40;63.10;;;;;;5133003;27;20031;-69
2023/10/15 07:13:01;;;;;;;0.60;0.60;;;12.50;63.10;;;;;;5146754;27;20336;-69
2023/10/15 07:15:26;;;;;;;0.50;0.50;;;12.60;63.20;;;;;;5142456;27;20491;-69
2023/10/15 07:17:53;;;;;;;0.40;0.40;;;12.70;63.40;;;;;;5132045;27;20030;-70
2023/10/15 07:20:21;;;;;;;0.40;0.40;;;12.80;63.20;;;;;;5132717;27;20456;-69
2023/10/15 07:22:48;;;;;;;0.75;0.68;;;13.00;63.00;;;;;;5144765;27;20487;-69
2023/10/15 07:25:18;;;;;;;0.50;0.50;;;13.10;62.80;;;;;;5144066;27;20046;-70
2023/10/15 07:27:45;;;;;;;0.40;0.40;;;13.40;63.80;;;;;;5130734;27;20571;-70
2023/10/15 07:30:12;;;;;;;1.10;0.95;;;14.00;66.00;;;;;;5132605;27;20031;-70
2023/10/15 07:32:40;;;;;;;0.40;0.40;;;14.40;64.60;;;;;;5143276;27;20447;-69
2023/10/15 07:35:07;;;;;;;0.45;0.45;;;14.70;62.40;;;;;;5144998;27;20031;-69
2023/10/15 07:37:34;;;;;;;0.40;0.40;;;14.80;61.10;;;;;;5141730;27;20146;-69
2023/10/15 07:40:05;;;;;;;0.40;0.40;;;14.90;60.70;;;;;;5146695;27;20031;-69
2023/10/15 07:42:34;;;;;;;0.50;0.50;;;15.00;59.50;;;;;;5143257;27;20088;-69
2023/10/15 07:45:01;;;;;;;0.40;0.40;;;14.90;59.00;;;;;;5144492;27;20024;-68
2023/10/15 07:47:27;;;;;;;0.50;0.50;;;15.00;59.00;;;;;;5148481;27;20567;-69
2023/10/15 07:49:53;;;;;;;0.50;0.50;;;15.00;58.90;;;;;;5148688;27;20109;-69
2023/10/15 07:52:18;;;;;;;0.40;0.40;;;15.10;58.90;;;;;;5140431;27;20035;-69
2023/10/15 07:54:44;;;;;;;0.50;0.50;;;15.30;58.10;;;;;;5147145;27;20218;-70
2023/10/15 07:57:14;;;;;;;0.50;0.50;;;15.50;58.40;;;;;;5143449;27;20026;-70
2023/10/15 07:59:39;;;;;;;3.28;1.88;;;15.60;58.10;;;;;;5149939;27;20029;-70
2023/10/15 08:02:07;;;;;;;0.50;0.50;;;15.80;57.80;;;;;;5129261;27;20404;-70
2023/10/15 08:04:34;;;;;;;0.50;0.50;;;15.90;57.50;;;;;;5138068;27;20019;-70
2023/10/15 08:07:00;;;;;;;0.73;0.73;;;15.90;56.80;;;;;;5142043;27;20054;-70
2023/10/15 08:09:26;;;;;;;0.40;0.40;;;16.20;57.80;;;;;;5151951;27;20038;-69
2023/10/15 08:11:55;;;;;;;0.55;0.55;;;16.30;56.80;;;;;;5136185;27;20022;-69
2023/10/15 08:14:21;;;;;;;0.50;0.50;;;16.40;55.50;;;;;;5148818;27;20087;-70
2023/10/15 08:16:47;;;;;;;0.47;0.47;;;16.50;56.10;;;;;;5130825;27;20023;-70
2023/10/15 08:19:12;;;;;;;0.50;0.50;;;16.80;56.20;;;;;;5132104;28;20059;-69
2023/10/15 08:21:38;;;;;;;0.50;0.50;;;17.20;56.10;;;;;;5134127;27;20541;-69
2023/10/15 08:24:04;;;;;;;0.40;0.40;;;17.50;54.80;;;;;;5149236;27;20113;-70
2023/10/15 08:26:30;;;;;;;0.40;0.40;;;17.70;53.50;;;;;;5146843;27;20027;-70
2023/10/15 08:28:56;;;;;;;0.60;0.60;;;17.80;52.50;;;;;;5132597;27;20106;-70
2023/10/15 08:31:23;;;;;;;0.50;0.50;;;17.80;52.30;;;;;;5131411;27;20051;-70
2023/10/15 08:33:50;;;;;;;0.40;0.40;;;17.80;52.30;;;;;;5149434;27;20041;-70
2023/10/15 08:36:15;;;;;;;0.40;0.40;;;17.80;51.80;;;;;;5152464;27;20121;-69
2023/10/15 08:38:41;;;;;;;0.40;0.40;;;17.80;51.50;;;;;;5148403;27;20031;-70
2023/10/15 08:41:10;;;;;;;0.47;0.47;;;17.80;51.50;;;;;;5152892;27;20026;-70
2023/10/15 08:43:40;;;;;;;0.50;0.50;;;17.90;51.60;;;;;;5146860;27;20459;-70
2023/10/15 08:46:09;;;;;;;0.60;0.60;;;18.00;51.10;;;;;;5152478;27;20353;-71
2023/10/15 08:48:40;;;;;;;0.60;0.60;;;18.00;50.80;;;;;;5133021;27;20038;-70
2023/10/15 08:51:08;;;;;;;;;;;18.10;51.00;;;;;;5132468;27;20031;-70
2023/10/15 08:53:34;;;;;;;0.40;0.40;;;18.10;50.30;;;;;;5146559;27;19911;-70
2023/10/15 08:56:01;;;;;;;0.63;0.63;;;18.10;50.10;;;;;;5152757;27;20388;-70
2023/10/15 08:58:28;;;;;;;0.40;0.40;;;18.10;49.80;;;;;;5134066;27;20553;-70
2023/10/15 09:00:57;;;;;;;0.40;0.40;;;18.20;49.80;;;;;;5131852;27;20019;-70
2023/10/15 09:03:24;;;;;;;0.40;0.40;;;18.20;49.80;;;;;;5146753;27;20057;-70
2023/10/15 09:05:52;;;;;;;0.40;0.40;;;18.20;49.00;;;;;;5151035;27;20060;-70
2023/10/15 09:08:20;;;;;;;6.03;1.30;;;18.20;49.20;;;;;;5135192;27;20491;-71
2023/10/15 09:10:45;;;;;;;0.50;0.50;;;18.30;49.40;;;;;;5133782;27;20035;-70
2023/10/15 09:13:15;;;;;;;0.40;0.40;;;18.40;49.50;;;;;;5150408;27;20387;-71
2023/10/15 09:15:46;;;;;;;1.10;1.05;;;18.40;48.60;;;;;;5152650;27;20018;-69
2023/10/15 09:18:13;;;;;;;;;;;18.40;48.60;;;;;;5140248;27;20496;-70
2023/10/15 09:20:44;;;;;;;0.50;0.50;;;18.40;48.00;;;;;;5135622;27;20276;-69
2023/10/15 09:23:10;;;;;;;0.40;0.40;;;18.30;48.00;;;;;;5150093;27;20026;-69
2023/10/15 09:25:36;;;;;;;0.40;0.40;;;18.40;48.50;;;;;;5152434;27;20022;-70
2023/10/15 09:28:02;;;;;;;0.40;0.40;;;18.50;48.10;;;;;;5140201;27;20031;-69
2023/10/15 09:30:32;;;;;;;0.68;0.68;;;18.50;47.50;;;;;;5134112;27;20721;-69
2023/10/15 09:33:00;;;;;;;0.40;0.40;;;18.50;47.20;;;;;;5148599;27;20472;-70
2023/10/15 09:35:28;;;;;;;0.40;0.40;;;18.50;47.00;;;;;;5152384;27;20027;-70
2023/10/15 09:37:56;;;;;;;0.43;0.43;;;18.60;46.90;;;;;;5142167;27;20023;-69
2023/10/15 09:40:24;;;;;;;0.47;0.47;;;18.80;47.90;;;;;;5135131;27;20064;-68
2023/10/15 09:42:54;;;;;;;0.40;0.40;;;19.20;47.40;;;;;;5144880;27;20510;-69
2023/10/15 09:45:23;;;;;;;0.63;0.63;;;19.70;47.90;;;;;;5140871;27;20026;-69
2023/10/15 09:47:57;;;;;;;0.40;0.40;;;20.00;46.50;;;;;;5141773;27;20031;-69
2023/10/15 09:50:27;;;;;;;0.50;0.50;;;20.30;45.50;;;;;;5145578;27;20486;-69
2023/10/15 09:52:57;;;;;;;0.50;0.50;;;20.40;43.70;;;;;;5154256;27;20083;-70
2023/10/15 09:55:28;;;;;;;0.50;0.50;;;20.30;43.30;;;;;;5152932;27;20065;-70
2023/10/15 09:57:58;;;;;;;0.77;0.77;;;20.30;42.30;;;;;;5156023;27;20027;-69
2023/10/15 10:00:46;;;;;;;0.40;0.40;;;20.00;41.30;;;;;;5156033;27;20042;-70
2023/10/15 10:03:47;;;;;;;0.32;0.32;;;19.80;41.60;;;;;;5153270;27;20479;-71
2023/10/15 10:06:39;;;;;;;0.40;0.40;;;19.60;42.20;;;;;;5133025;27;20548;-70
2023/10/15 10:09:28;;;;;;;0.57;0.57;;;19.60;42.60;;;;;;5134789;27;20030;-69
2023/10/15 10:12:32;;;;;;;0.40;0.40;;;19.70;42.30;;;;;;5137972;27;20593;-71
2023/10/15 10:15:39;;;;;;;0.40;0.40;;;19.80;42.00;;;;;;5152259;27;20031;-69
2023/10/15 10:18:07;;;;;;;0.40;0.40;;;19.80;41.40;;;;;;5154330;27;20084;-71
2023/10/15 10:20:36;;;;;;;0.40;0.40;;;19.80;41.80;;;;;;5155089;27;20027;-71
2023/10/15 10:23:05;;;;;;;0.40;0.40;;;19.80;41.70;;;;;;5152517;27;20023;-71
2023/10/15 10:25:42;;;;;;;0.40;0.40;;;20.00;41.90;;;;;;5151059;27;20026;-71
2023/10/15 10:28:11;;;;;;;0.40;0.40;;;20.00;41.40;;;;;;5154080;27;20535;-70
2023/10/15 10:30:38;;;;;;;0.40;0.40;;;19.90;40.40;;;;;;5154616;27;20069;-70
2023/10/15 10:33:04;;;;;;;1.10;0.93;;;19.60;40.40;;;;;;5152946;27;20030;-71
2023/10/15 10:35:42;;;;;;;0.95;0.60;;;19.40;41.00;;;;;;5151349;27;20070;-70
2023/10/15 10:38:12;;;;;;;0.40;0.40;;;19.40;41.60;;;;;;5142089;27;20490;-70
2023/10/15 10:40:56;;;;;;;0.40;0.40;;;19.60;42.30;;;;;;5134211;27;20031;-70
2023/10/15 10:43:24;;;;;;;1.05;1.00;;;19.80;42.10;;;;;;5148299;27;20055;-71
2023/10/15 10:46:00;;;;;;;0.50;0.50;;;20.20;42.60;;;;;;5151562;27;20030;-70
2023/10/15 10:48:27;;;;;;;0.40;0.40;;;20.70;42.20;;;;;;5153978;27;20046;-70
2023/10/15 10:51:11;;;;;;;0.40;0.40;;;21.10;40.80;;;;;;5154182;27;20027;-69
2023/10/15 10:53:55;;;;;;;0.40;0.40;;;21.30;39.30;;;;;;5149956;27;20479;-70
2023/10/15 10:56:22;;;;;;;0.40;0.40;;;21.30;39.00;;;;;;5132271;27;20047;-70
2023/10/15 10:58:51;;;;;;;3.70;0.98;;;21.40;38.60;;;;;;5133833;27;20384;-69
2023/10/15 11:01:17;;;;;;;1.23;1.13;;;21.60;38.70;;;;;;5133231;27;20031;-70
2023/10/15 11:03:44;;;;;;;0.40;0.40;;;21.80;38.80;;;;;;5133699;27;20069;-69
2023/10/15 11:06:10;;;;;;;0.50;0.50;;;21.90;37.60;;;;;;5154068;27;20026;-69
2023/10/15 11:08:35;;;;;;;0.40;0.40;;;21.80;36.40;;;;;;5151043;27;20483;-69
2023/10/15 11:11:01;;;;;;;0.40;0.40;;;21.30;36.70;;;;;;5154263;27;20026;-69
2023/10/15 11:13:29;;;;;;;0.50;0.50;;;21.20;37.60;;;;;;5149276;27;20121;-69
2023/10/15 11:15:56;;;;;;;0.80;0.80;;;21.20;38.40;;;;;;5152401;27;20130;-69
2023/10/15 11:18:26;;;;;;;0.50;0.50;;;21.20;38.00;;;;;;5150430;27;20027;-69
2023/10/15 11:20:52;;;;;;;0.50;0.50;;;21.00;37.60;;;;;;5153677;27;20526;-69
2023/10/15 11:23:18;;;;;;;1.35;0.70;;;21.00;38.00;;;;;;5150542;27;20023;-70
2023/10/15 11:25:45;;;;;;;0.40;0.40;;;21.20;38.60;;;;;;5151536;27;20094;-70
2023/10/15 11:28:11;;;;;;;0.50;0.50;;;21.50;38.90;;;;;;5150352;27;20475;-69
2023/10/15 11:30:42;;;;;;;0.40;0.40;;;21.80;38.10;;;;;;5154318;27;20038;-70
2023/10/15 11:33:12;;;;;;;0.45;0.45;;;22.00;37.60;;;;;;5151554;27;20511;-69
2023/10/15 11:35:38;;;;;;;0.40;0.40;;;22.00;36.60;;;;;;5150870;27;20055;-70
2023/10/15 11:38:11;;;;;;;0.50;0.50;;;21.90;36.20;;;;;;5139087;27;20050;-69
2023/10/15 11:40:39;;;;;;;0.40;0.40;;;21.70;35.80;;;;;;5132929;27;20035;-69
2023/10/15 11:43:20;;;;;;;0.50;0.50;;;21.40;36.20;;;;;;5146400;27;20471;-68
2023/10/15 11:45:46;;;;;;;0.50;0.50;;;21.10;35.10;;;;;;5147558;27;20031;-69
2023/10/15 11:48:13;;;;;;;0.40;0.40;;;20.80;35.90;;;;;;5145502;27;20042;-70
2023/10/15 11:50:44;;;;;;;0.40;0.40;;;20.60;36.30;;;;;;5139745;27;20096;-70
2023/10/15 11:53:25;;;;;;;0.60;0.60;;;20.40;36.50;;;;;;5147220;27;20027;-70
2023/10/15 11:55:54;;;;;;;0.43;0.43;;;20.30;37.10;;;;;;5142814;27;20047;-69
2023/10/15 11:58:23;;;;;;;0.77;0.77;;;20.40;37.60;;;;;;5152162;27;20159;-69
2023/10/15 12:00:51;;;;;;;0.40;0.40;;;20.50;37.80;;;;;;5147905;27;20046;-69
2023/10/15 12:03:18;;;;;;;0.43;0.43;;;20.60;36.30;;;;;;5146393;27;20122;-71
2023/10/15 12:05:45;;;;;;;0.50;0.50;;;20.60;36.70;;;;;;5149187;27;20463;-71
2023/10/15 12:08:13;;;;;;;0.40;0.40;;;20.80;36.60;;;;;;5148045;27;20037;-70
2023/10/15 12:10:45;;;;;;;0.40;0.40;;;20.90;36.80;;;;;;5152027;27;20034;-70
2023/10/15 12:13:14;;;;;;;0.40;0.40;;;21.00;36.70;;;;;;5130085;27;20034;-70
2023/10/15 12:15:43;;;;;;;0.75;0.75;;;21.10;36.60;;;;;;5149244;27;20130;-69
2023/10/15 12:18:09;;;;;;;0.50;0.50;;;21.20;36.00;;;;;;5135045;27;20126;-69
2023/10/15 12:20:34;;;;;;;0.45;0.45;;;21.20;35.90;;;;;;5145322;27;20130;-70
2023/10/15 12:23:00;;;;;;;0.55;0.55;;;21.40;35.60;;;;;;5145786;27;20015;-70
2023/10/15 12:25:26;;;;;;;0.50;0.50;;;21.40;35.50;;;;;;5146691;27;20200;-69
2023/10/15 12:27:51;;;;;;;3.13;0.63;;;21.50;35.30;;;;;;5152620;27;20148;-70
2023/10/15 12:30:23;;;;;;;0.40;0.40;;;21.70;35.20;;;;;;5150559;27;20503;-70
2023/10/15 12:32:55;;;;;;;0.45;0.45;;;21.70;34.60;;;;;;5148271;27;20026;-70
2023/10/15 12:35:22;;;;;;;0.50;0.50;;;21.60;34.40;;;;;;5136190;27;20042;-70
2023/10/15 12:37:49;;;;;;;0.50;0.50;;;21.30;34.20;;;;;;5138183;27;20019;-69
2023/10/15 12:40:22;;;;;;;0.55;0.55;;;21.00;35.00;;;;;;5151994;27;20033;-70
2023/10/15 12:42:48;;;;;;;0.40;0.40;;;20.30;39.40;;;;;;5142026;27;20519;-70
2023/10/15 12:45:13;;;;;;;0.40;0.40;;;19.60;41.70;;;;;;5149522;27;20157;-71
2023/10/15 12:47:40;;;;;;;0.50;0.50;;;18.90;43.80;;;;;;5149023;27;20555;-70
2023/10/15 12:50:14;;;;;;;0.30;0.30;;;18.20;45.80;;;;;;5155044;27;20501;-68
2023/10/15 12:52:46;;;;;;;0.40;0.40;;;17.40;48.50;;;;;;5146225;27;20072;-70
2023/10/15 12:55:19;;;;;;;0.50;0.50;;;16.80;50.90;;;;;;5150398;27;20875;-70
2023/10/15 12:57:46;;;;;;;0.50;0.50;;;16.30;52.60;;;;;;5151788;27;20383;-70
2023/10/15 13:00:18;;;;;;;1.27;1.17;;;15.80;54.00;;;;;;5154155;27;20484;-70
2023/10/15 13:02:50;;;;;;;0.40;0.40;;;15.50;55.20;;;;;;5145580;27;20019;-70
2023/10/15 13:05:17;;;;;;;0.50;0.50;;;15.20;56.00;;;;;;5146851;27;20114;-70
2023/10/15 13:07:43;;;;;;;0.60;0.60;;;14.90;57.00;;;;;;5139429;27;20315;-69
2023/10/15 13:10:09;;;;;;;0.75;0.75;;;14.70;57.80;;;;;;5134801;27;20031;-70
2023/10/15 13:12:38;;;;;;;0.50;0.50;;;14.50;58.20;;;;;;5145650;27;20022;-69